sensor_id;sensor_type;location;lat;lon;timestamp;pressure;altitude;pressure_sealevel;temperature;humidity
8049;BME280;20935;42.660;23.342;2023-03-26T00:02:28;94279.53;;;11.05;100.00
8049;BME280;20935;42.660;23.342;2023-03-26T00:05:15;94269.69;;;10.99;100.00
8049;BME280;20935;42.660;23.342;2023-03-26T00:08:00;94294.59;;;10.96;100.00
8049;BME280;20935;42.660;23.342;2023-03-26T00:10:46;94290.59;;;11.07;100.00
8049;BME280;20935;42.660;23.342;2023-03-26T00:13:32;94274.34;;;10.95;100.00
8049;BME280;20935;42.660;23.342;2023-03-26T00:16:18;94275.75;;;10.76;100.00
8049;BME280;20935;42.660;23.342;2023-03-26T00:19:04;94270.50;;;10.69;100.00
8049;BME280;20935;42.660;23.342;2023-03-26T00:21:51;94262.94;;;10.64;100.00
8049;BME280;20935;42.660;23.342;2023-03-26T00:24:36;94256.72;;;10.70;100.00
8049;BME280;20935;42.660;23.342;2023-03-26T00:27:22;94257.38;;;10.78;100.00
8049;BME280;20935;42.660;23.342;2023-03-26T00:30:08;94254.75;;;10.74;100.00
8049;BME280;20935;42.660;23.342;2023-03-26T00:32:54;94257.50;;;10.67;100.00
8049;BME280;20935;42.660;23.342;2023-03-26T00:35:39;94246.72;;;10.74;100.00
8049;BME280;20935;42.660;23.342;2023-03-26T00:38:27;94249.78;;;10.73;100.00
8049;BME280;20935;42.660;23.342;2023-03-26T00:41:15;94248.22;;;10.75;100.00
8049;BME280;20935;42.660;23.342;2023-03-26T00:44:08;94242.06;;;10.78;100.00
8049;BME280;20935;42.660;23.342;2023-03-26T00:46:54;94245.91;;;10.77;100.00
8049;BME280;20935;42.660;23.342;2023-03-26T00:49:39;94245.13;;;10.77;100.00
8049;BME280;20935;42.660;23.342;2023-03-26T00:52:25;94242.78;;;10.82;100.00
8049;BME280;20935;42.660;23.342;2023-03-26T00:55:13;94248.91;;;10.79;100.00
8049;BME280;20935;42.660;23.342;2023-03-26T00:57:58;94259.69;;;10.76;100.00
8049;BME280;20935;42.660;23.342;2023-03-26T01:00:48;94250.09;;;10.78;100.00
8049;BME280;20935;42.660;23.342;2023-03-26T01:03:36;94240.81;;;10.83;100.00
8049;BME280;20935;42.660;23.342;2023-03-26T01:06:24;94252.84;;;10.98;98.74
8049;BME280;20935;42.660;23.342;2023-03-26T01:09:13;94245.38;;;11.09;97.82
8049;BME280;20935;42.660;23.342;2023-03-26T01:12:01;94264.84;;;11.13;95.91
8049;BME280;20935;42.660;23.342;2023-03-26T01:14:48;94250.06;;;11.05;96.97
8049;BME280;20935;42.660;23.342;2023-03-26T01:17:34;94260.06;;;11.01;97.63
8049;BME280;20935;42.660;23.342;2023-03-26T01:20:23;94262.56;;;10.89;99.90
8049;BME280;20935;42.660;23.342;2023-03-26T01:23:09;94264.03;;;10.93;99.81
8049;BME280;20935;42.660;23.342;2023-03-26T01:26:03;94266.94;;;11.02;99.93
8049;BME280;20935;42.660;23.342;2023-03-26T01:28:54;94273.63;;;10.91;100.00
8049;BME280;20935;42.660;23.342;2023-03-26T01:31:47;94278.53;;;10.96;100.00
8049;BME280;20935;42.660;23.342;2023-03-26T01:34:45;94282.25;;;10.78;100.00
8049;BME280;20935;42.660;23.342;2023-03-26T01:37:38;94273.34;;;10.85;100.00
8049;BME280;20935;42.660;23.342;2023-03-26T01:40:33;94274.91;;;10.82;100.00
8049;BME280;20935;42.660;23.342;2023-03-26T01:43:31;94276.06;;;10.81;100.00
8049;BME280;20935;42.660;23.342;2023-03-26T01:46:20;94276.34;;;10.87;100.00
8049;BME280;20935;42.660;23.342;2023-03-26T01:49:06;94282.75;;;10.70;100.00
8049;BME280;20935;42.660;23.342;2023-03-26T01:51:56;94281.13;;;10.76;100.00
8049;BME280;20935;42.660;23.342;2023-03-26T01:54:42;94283.84;;;10.72;100.00
8049;BME280;20935;42.660;23.342;2023-03-26T01:57:35;94285.19;;;10.84;100.00
8049;BME280;20935;42.660;23.342;2023-03-26T02:00:28;94284.56;;;10.76;100.00
8049;BME280;20935;42.660;23.342;2023-03-26T02:03:21;94278.88;;;10.71;100.00
8049;BME280;20935;42.660;23.342;2023-03-26T02:06:14;94288.56;;;10.65;100.00
8049;BME280;20935;42.660;23.342;2023-03-26T02:09:03;94289.66;;;10.67;100.00
8049;BME280;20935;42.660;23.342;2023-03-26T02:11:50;94275.16;;;10.65;100.00
8049;BME280;20935;42.660;23.342;2023-03-26T02:14:37;94283.25;;;10.61;100.00
8049;BME280;20935;42.660;23.342;2023-03-26T02:17:24;94280.47;;;10.42;100.00
8049;BME280;20935;42.660;23.342;2023-03-26T02:20:14;94287.41;;;10.35;100.00
8049;BME280;20935;42.660;23.342;2023-03-26T02:23:02;94288.44;;;10.45;100.00
8049;BME280;20935;42.660;23.342;2023-03-26T02:25:47;94279.09;;;10.30;100.00
8049;BME280;20935;42.660;23.342;2023-03-26T02:28:32;94280.56;;;10.34;100.00
8049;BME280;20935;42.660;23.342;2023-03-26T02:31:18;94280.94;;;10.33;100.00
8049;BME280;20935;42.660;23.342;2023-03-26T02:34:06;94279.47;;;10.28;100.00
8049;BME280;20935;42.660;23.342;2023-03-26T02:36:51;94280.50;;;10.38;100.00
8049;BME280;20935;42.660;23.342;2023-03-26T02:39:37;94284.13;;;10.55;100.00
8049;BME280;20935;42.660;23.342;2023-03-26T02:42:22;94279.91;;;10.54;100.00
8049;BME280;20935;42.660;23.342;2023-03-26T02:45:07;94287.94;;;10.54;100.00
8049;BME280;20935;42.660;23.342;2023-03-26T02:47:53;94292.09;;;10.58;100.00
8049;BME280;20935;42.660;23.342;2023-03-26T02:50:40;94302.16;;;10.47;100.00
8049;BME280;20935;42.660;23.342;2023-03-26T02:53:26;94307.41;;;10.27;100.00
8049;BME280;20935;42.660;23.342;2023-03-26T02:56:12;94309.41;;;10.20;100.00
8049;BME280;20935;42.660;23.342;2023-03-26T02:58:58;94324.69;;;10.23;100.00
8049;BME280;20935;42.660;23.342;2023-03-26T03:01:43;94305.63;;;10.17;100.00
8049;BME280;20935;42.660;23.342;2023-03-26T03:04:29;94304.59;;;10.04;100.00
8049;BME280;20935;42.660;23.342;2023-03-26T03:07:16;94323.31;;;10.04;100.00
8049;BME280;20935;42.660;23.342;2023-03-26T03:10:02;94310.75;;;10.01;100.00
8049;BME280;20935;42.660;23.342;2023-03-26T03:12:47;94320.28;;;10.02;100.00
8049;BME280;20935;42.660;23.342;2023-03-26T03:15:33;94312.38;;;9.91;100.00
8049;BME280;20935;42.660;23.342;2023-03-26T03:18:19;94311.31;;;9.85;100.00
8049;BME280;20935;42.660;23.342;2023-03-26T03:21:05;94310.19;;;9.83;100.00
8049;BME280;20935;42.660;23.342;2023-03-26T03:23:52;94325.16;;;9.77;100.00
8049;BME280;20935;42.660;23.342;2023-03-26T03:26:37;94326.47;;;9.58;100.00
8049;BME280;20935;42.660;23.342;2023-03-26T03:29:24;94331.63;;;9.76;100.00
8049;BME280;20935;42.660;23.342;2023-03-26T03:32:09;94335.81;;;9.80;100.00
8049;BME280;20935;42.660;23.342;2023-03-26T03:34:55;94329.78;;;9.73;100.00
8049;BME280;20935;42.660;23.342;2023-03-26T03:37:41;94323.66;;;9.72;100.00
8049;BME280;20935;42.660;23.342;2023-03-26T03:40:27;94328.25;;;9.72;100.00
8049;BME280;20935;42.660;23.342;2023-03-26T03:43:12;94316.22;;;9.53;100.00
8049;BME280;20935;42.660;23.342;2023-03-26T03:45:58;94312.50;;;9.40;100.00
8049;BME280;20935;42.660;23.342;2023-03-26T03:48:44;94321.06;;;9.65;100.00
8049;BME280;20935;42.660;23.342;2023-03-26T03:51:32;94325.41;;;9.49;100.00
8049;BME280;20935;42.660;23.342;2023-03-26T03:54:18;94342.16;;;9.56;100.00
8049;BME280;20935;42.660;23.342;2023-03-26T03:57:05;94341.50;;;9.45;100.00
8049;BME280;20935;42.660;23.342;2023-03-26T03:59:50;94336.03;;;9.59;100.00
8049;BME280;20935;42.660;23.342;2023-03-26T04:02:36;94340.66;;;9.55;100.00
8049;BME280;20935;42.660;23.342;2023-03-26T04:05:25;94338.63;;;9.66;100.00
8049;BME280;20935;42.660;23.342;2023-03-26T04:08:11;94340.22;;;9.57;100.00
8049;BME280;20935;42.660;23.342;2023-03-26T04:10:57;94338.44;;;9.47;100.00
8049;BME280;20935;42.660;23.342;2023-03-26T04:13:44;94349.44;;;9.52;100.00
8049;BME280;20935;42.660;23.342;2023-03-26T04:16:32;94343.00;;;9.46;100.00
8049;BME280;20935;42.660;23.342;2023-03-26T04:19:17;94360.09;;;9.56;100.00
8049;BME280;20935;42.660;23.342;2023-03-26T04:22:03;94378.41;;;9.57;100.00
8049;BME280;20935;42.660;23.342;2023-03-26T04:24:48;94376.41;;;9.68;100.00
8049;BME280;20935;42.660;23.342;2023-03-26T04:27:37;94388.72;;;9.59;100.00
8049;BME280;20935;42.660;23.342;2023-03-26T04:30:26;94390.16;;;9.70;100.00
8049;BME280;20935;42.660;23.342;2023-03-26T04:33:12;94408.41;;;9.79;100.00
8049;BME280;20935;42.660;23.342;2023-03-26T04:35:59;94405.81;;;9.68;100.00
8049;BME280;20935;42.660;23.342;2023-03-26T04:38:46;94410.75;;;9.73;100.00
8049;BME280;20935;42.660;23.342;2023-03-26T04:41:34;94418.38;;;9.75;100.00
8049;BME280;20935;42.660;23.342;2023-03-26T04:44:20;94423.38;;;9.69;100.00
8049;BME280;20935;42.660;23.342;2023-03-26T04:47:07;94426.31;;;9.85;100.00
8049;BME280;20935;42.660;23.342;2023-03-26T04:49:53;94421.78;;;9.79;100.00
8049;BME280;20935;42.660;23.342;2023-03-26T04:52:39;94414.50;;;9.83;100.00
8049;BME280;20935;42.660;23.342;2023-03-26T04:55:28;94420.94;;;9.89;100.00
8049;BME280;20935;42.660;23.342;2023-03-26T04:58:15;94421.25;;;9.95;100.00
8049;BME280;20935;42.660;23.342;2023-03-26T05:01:01;94422.47;;;9.86;100.00
8049;BME280;20935;42.660;23.342;2023-03-26T05:03:48;94415.81;;;10.05;100.00
8049;BME280;20935;42.660;23.342;2023-03-26T05:06:33;94408.13;;;10.07;100.00
8049;BME280;20935;42.660;23.342;2023-03-26T05:09:20;94417.34;;;10.06;100.00
8049;BME280;20935;42.660;23.342;2023-03-26T05:12:06;94431.22;;;10.35;100.00
8049;BME280;20935;42.660;23.342;2023-03-26T05:14:52;94442.91;;;10.48;100.00
8049;BME280;20935;42.660;23.342;2023-03-26T05:17:37;94451.56;;;10.63;99.94
8049;BME280;20935;42.660;23.342;2023-03-26T05:20:27;94431.97;;;10.69;98.40
8049;BME280;20935;42.660;23.342;2023-03-26T05:23:14;94445.41;;;10.66;97.63
8049;BME280;20935;42.660;23.342;2023-03-26T05:26:00;94444.88;;;10.78;97.08
8049;BME280;20935;42.660;23.342;2023-03-26T05:28:45;94440.34;;;10.71;98.25
8049;BME280;20935;42.660;23.342;2023-03-26T05:31:30;94449.22;;;10.95;97.53
8049;BME280;20935;42.660;23.342;2023-03-26T05:34:16;94454.47;;;11.06;97.64
8049;BME280;20935;42.660;23.342;2023-03-26T05:37:03;94451.38;;;11.07;98.24
8049;BME280;20935;42.660;23.342;2023-03-26T05:39:52;94450.97;;;11.09;98.42
8049;BME280;20935;42.660;23.342;2023-03-26T05:42:38;94466.75;;;11.03;98.38
8049;BME280;20935;42.660;23.342;2023-03-26T05:45:23;94462.03;;;11.14;99.27
8049;BME280;20935;42.660;23.342;2023-03-26T05:48:09;94463.50;;;11.46;96.45
8049;BME280;20935;42.660;23.342;2023-03-26T05:50:55;94464.09;;;11.30;97.17
8049;BME280;20935;42.660;23.342;2023-03-26T05:53:42;94467.88;;;11.32;97.20
8049;BME280;20935;42.660;23.342;2023-03-26T05:56:28;94459.44;;;11.34;97.26
8049;BME280;20935;42.660;23.342;2023-03-26T05:59:13;94459.91;;;11.29;96.84
8049;BME280;20935;42.660;23.342;2023-03-26T06:01:59;94457.81;;;11.40;93.71
8049;BME280;20935;42.660;23.342;2023-03-26T06:04:44;94453.72;;;11.59;92.20
8049;BME280;20935;42.660;23.342;2023-03-26T06:07:30;94456.81;;;11.57;90.68
8049;BME280;20935;42.660;23.342;2023-03-26T06:10:18;94444.97;;;11.82;86.34
8049;BME280;20935;42.660;23.342;2023-03-26T06:13:05;94455.19;;;11.63;87.78
8049;BME280;20935;42.660;23.342;2023-03-26T06:15:50;94456.03;;;11.84;85.31
8049;BME280;20935;42.660;23.342;2023-03-26T06:18:35;94453.53;;;11.46;85.54
8049;BME280;20935;42.660;23.342;2023-03-26T06:21:21;94447.78;;;11.71;85.67
8049;BME280;20935;42.660;23.342;2023-03-26T06:24:07;94447.50;;;11.65;86.15
8049;BME280;20935;42.660;23.342;2023-03-26T06:26:53;94450.88;;;11.69;85.59
8049;BME280;20935;42.660;23.342;2023-03-26T06:29:39;94452.88;;;12.12;82.38
8049;BME280;20935;42.660;23.342;2023-03-26T06:32:24;94454.66;;;12.22;80.12
8049;BME280;20935;42.660;23.342;2023-03-26T06:35:09;94458.31;;;12.51;77.98
8049;BME280;20935;42.660;23.342;2023-03-26T06:37:55;94463.69;;;12.08;79.02
8049;BME280;20935;42.660;23.342;2023-03-26T06:40:40;94455.97;;;12.10;79.37
8049;BME280;20935;42.660;23.342;2023-03-26T06:43:27;94457.66;;;12.24;78.75
8049;BME280;20935;42.660;23.342;2023-03-26T06:46:16;94461.19;;;12.21;77.60
8049;BME280;20935;42.660;23.342;2023-03-26T06:49:04;94472.78;;;12.14;76.73
8049;BME280;20935;42.660;23.342;2023-03-26T06:51:49;94462.59;;;12.49;73.63
8049;BME280;20935;42.660;23.342;2023-03-26T06:54:35;94471.75;;;12.51;72.05
8049;BME280;20935;42.660;23.342;2023-03-26T06:57:20;94471.13;;;12.44;72.93
8049;BME280;20935;42.660;23.342;2023-03-26T07:00:09;94485.50;;;12.77;70.89
8049;BME280;20935;42.660;23.342;2023-03-26T07:02:54;94488.22;;;12.53;73.12
8049;BME280;20935;42.660;23.342;2023-03-26T07:05:40;94488.09;;;12.80;70.82
8049;BME280;20935;42.660;23.342;2023-03-26T07:08:25;94490.22;;;12.49;70.81
8049;BME280;20935;42.660;23.342;2023-03-26T07:11:10;94488.94;;;12.57;69.76
8049;BME280;20935;42.660;23.342;2023-03-26T07:13:56;94489.56;;;12.85;67.84
8049;BME280;20935;42.660;23.342;2023-03-26T07:16:45;94495.91;;;13.14;66.53
8049;BME280;20935;42.660;23.342;2023-03-26T07:19:30;94482.81;;;12.77;67.48
8049;BME280;20935;42.660;23.342;2023-03-26T07:22:19;94484.44;;;12.70;67.41
8049;BME280;20935;42.660;23.342;2023-03-26T07:25:06;94479.81;;;12.91;67.31
8049;BME280;20935;42.660;23.342;2023-03-26T07:27:59;94486.72;;;12.92;67.77
8049;BME280;20935;42.660;23.342;2023-03-26T07:30:57;94482.38;;;12.98;66.66
8049;BME280;20935;42.660;23.342;2023-03-26T07:33:50;94467.41;;;13.36;62.87
8049;BME280;20935;42.660;23.342;2023-03-26T07:36:43;94476.34;;;13.13;64.40
8049;BME280;20935;42.660;23.342;2023-03-26T07:39:39;94471.09;;;13.42;63.87
8049;BME280;20935;42.660;23.342;2023-03-26T07:42:37;94477.53;;;13.64;61.70
8049;BME280;20935;42.660;23.342;2023-03-26T07:45:31;94470.41;;;13.38;62.98
8049;BME280;20935;42.660;23.342;2023-03-26T07:48:19;94481.72;;;13.65;62.55
8049;BME280;20935;42.660;23.342;2023-03-26T07:51:11;94468.06;;;14.08;60.27
8049;BME280;20935;42.660;23.342;2023-03-26T07:53:57;94470.41;;;14.06;58.52
8049;BME280;20935;42.660;23.342;2023-03-26T07:56:49;94479.41;;;13.84;56.65
8049;BME280;20935;42.660;23.342;2023-03-26T07:59:39;94460.56;;;13.68;58.74
8049;BME280;20935;42.660;23.342;2023-03-26T08:02:40;94461.00;;;14.60;55.54
8049;BME280;20935;42.660;23.342;2023-03-26T08:05:30;94461.56;;;14.96;52.77
8049;BME280;20935;42.660;23.342;2023-03-26T08:08:26;94461.50;;;14.54;52.99
8049;BME280;20935;42.660;23.342;2023-03-26T08:11:26;94459.56;;;14.55;53.08
8049;BME280;20935;42.660;23.342;2023-03-26T08:14:23;94460.53;;;14.32;52.50
8049;BME280;20935;42.660;23.342;2023-03-26T08:17:13;94448.41;;;14.24;51.22
8049;BME280;20935;42.660;23.342;2023-03-26T08:20:06;94460.38;;;14.39;49.15
8049;BME280;20935;42.660;23.342;2023-03-26T08:23:03;94465.13;;;14.64;51.30
8049;BME280;20935;42.660;23.342;2023-03-26T08:25:58;94456.22;;;14.51;50.97
8049;BME280;20935;42.660;23.342;2023-03-26T08:28:56;94466.13;;;14.54;50.50
8049;BME280;20935;42.660;23.342;2023-03-26T08:31:47;94468.25;;;14.46;48.97
8049;BME280;20935;42.660;23.342;2023-03-26T08:34:33;94466.50;;;14.56;48.89
8049;BME280;20935;42.660;23.342;2023-03-26T08:37:18;94462.53;;;14.61;47.84
8049;BME280;20935;42.660;23.342;2023-03-26T08:40:05;94455.41;;;14.67;48.87
8049;BME280;20935;42.660;23.342;2023-03-26T08:43:12;94460.06;;;15.08;49.01
8049;BME280;20935;42.660;23.342;2023-03-26T08:46:26;94459.34;;;14.78;48.68
8049;BME280;20935;42.660;23.342;2023-03-26T08:53:03;94455.56;;;15.42;48.80
8049;BME280;20935;42.660;23.342;2023-03-26T08:55:51;94450.06;;;15.33;47.97
8049;BME280;20935;42.660;23.342;2023-03-26T09:02:10;94452.53;;;14.74;48.66
8049;BME280;20935;42.660;23.342;2023-03-26T09:05:43;94454.69;;;15.20;46.80
8049;BME280;20935;42.660;23.342;2023-03-26T09:09:08;94450.59;;;15.41;45.04
8049;BME280;20935;42.660;23.342;2023-03-26T09:12:12;94456.31;;;15.30;45.28
8049;BME280;20935;42.660;23.342;2023-03-26T09:15:25;94453.03;;;15.52;46.17
8049;BME280;20935;42.660;23.342;2023-03-26T09:25:44;94443.31;;;15.79;45.22
8049;BME280;20935;42.660;23.342;2023-03-26T09:28:55;94442.69;;;15.21;44.72
8049;BME280;20935;42.660;23.342;2023-03-26T09:32:28;94431.16;;;15.33;43.41
8049;BME280;20935;42.660;23.342;2023-03-26T09:35:36;94440.25;;;15.77;42.25
8049;BME280;20935;42.660;23.342;2023-03-26T09:38:40;94437.75;;;15.45;43.34
8049;BME280;20935;42.660;23.342;2023-03-26T09:41:35;94427.09;;;15.54;44.83
8049;BME280;20935;42.660;23.342;2023-03-26T09:48:05;94428.41;;;15.62;44.99
8049;BME280;20935;42.660;23.342;2023-03-26T09:51:11;94421.88;;;15.85;45.03
8049;BME280;20935;42.660;23.342;2023-03-26T09:54:19;94411.41;;;15.87;44.30
8049;BME280;20935;42.660;23.342;2023-03-26T09:57:13;94419.75;;;15.80;43.88
8049;BME280;20935;42.660;23.342;2023-03-26T10:00:20;94429.47;;;15.77;44.29
8049;BME280;20935;42.660;23.342;2023-03-26T10:03:19;94402.41;;;16.03;44.19
8049;BME280;20935;42.660;23.342;2023-03-26T10:06:21;94407.22;;;15.73;42.75
8049;BME280;20935;42.660;23.342;2023-03-26T10:09:30;94411.13;;;15.60;41.39
8049;BME280;20935;42.660;23.342;2023-03-26T10:12:24;94400.75;;;15.71;42.98
8049;BME280;20935;42.660;23.342;2023-03-26T10:15:26;94381.09;;;15.70;43.54
8049;BME280;20935;42.660;23.342;2023-03-26T10:18:25;94381.31;;;15.50;44.00
8049;BME280;20935;42.660;23.342;2023-03-26T10:21:19;94385.69;;;15.95;42.76
8049;BME280;20935;42.660;23.342;2023-03-26T10:24:19;94371.66;;;15.87;42.07
8049;BME280;20935;42.660;23.342;2023-03-26T10:27:21;94355.66;;;16.27;41.65
8049;BME280;20935;42.660;23.342;2023-03-26T10:30:23;94360.75;;;16.13;40.85
8049;BME280;20935;42.660;23.342;2023-03-26T10:33:28;94353.91;;;15.99;41.00
8049;BME280;20935;42.660;23.342;2023-03-26T10:36:26;94346.44;;;16.03;40.48
8049;BME280;20935;42.660;23.342;2023-03-26T10:42:46;94355.91;;;16.42;40.05
8049;BME280;20935;42.660;23.342;2023-03-26T10:45:53;94339.69;;;16.42;39.69
8049;BME280;20935;42.660;23.342;2023-03-26T10:49:17;94338.22;;;16.28;39.80
8049;BME280;20935;42.660;23.342;2023-03-26T10:52:06;94331.59;;;16.64;39.22
8049;BME280;20935;42.660;23.342;2023-03-26T10:54:54;94323.34;;;16.24;38.20
8049;BME280;20935;42.660;23.342;2023-03-26T10:57:42;94330.88;;;16.51;38.78
8049;BME280;20935;42.660;23.342;2023-03-26T11:00:32;94330.50;;;16.83;38.67
8049;BME280;20935;42.660;23.342;2023-03-26T11:03:35;94322.06;;;16.81;38.31
8049;BME280;20935;42.660;23.342;2023-03-26T11:06:36;94327.38;;;16.94;36.63
8049;BME280;20935;42.660;23.342;2023-03-26T11:09:31;94316.34;;;16.79;37.22
8049;BME280;20935;42.660;23.342;2023-03-26T11:12:26;94318.97;;;16.92;37.18
8049;BME280;20935;42.660;23.342;2023-03-26T11:15:19;94310.69;;;16.64;36.87
8049;BME280;20935;42.660;23.342;2023-03-26T11:18:12;94311.28;;;16.59;35.68
8049;BME280;20935;42.660;23.342;2023-03-26T11:21:03;94303.53;;;16.70;35.08
8049;BME280;20935;42.660;23.342;2023-03-26T11:24:06;94311.84;;;16.76;35.34
8049;BME280;20935;42.660;23.342;2023-03-26T11:27:00;94311.31;;;16.47;36.85
8049;BME280;20935;42.660;23.342;2023-03-26T11:29:54;94299.13;;;16.42;36.64
8049;BME280;20935;42.660;23.342;2023-03-26T11:32:46;94295.50;;;16.88;35.30
8049;BME280;20935;42.660;23.342;2023-03-26T11:35:35;94289.69;;;16.99;34.79
8049;BME280;20935;42.660;23.342;2023-03-26T11:38:25;94281.00;;;16.73;35.43
8049;BME280;20935;42.660;23.342;2023-03-26T11:41:17;94289.44;;;17.15;34.82
8049;BME280;20935;42.660;23.342;2023-03-26T11:44:07;94279.63;;;16.69;34.96
8049;BME280;20935;42.660;23.342;2023-03-26T11:47:02;94263.09;;;16.67;34.09
8049;BME280;20935;42.660;23.342;2023-03-26T11:49:50;94266.50;;;16.89;33.15
8049;BME280;20935;42.660;23.342;2023-03-26T11:52:37;94261.03;;;17.11;33.67
8049;BME280;20935;42.660;23.342;2023-03-26T11:55:24;94246.16;;;17.15;34.39
8049;BME280;20935;42.660;23.342;2023-03-26T11:58:24;94248.69;;;17.10;34.19
8049;BME280;20935;42.660;23.342;2023-03-26T12:01:13;94226.91;;;16.73;34.81
8049;BME280;20935;42.660;23.342;2023-03-26T12:04:03;94233.97;;;17.11;34.63
8049;BME280;20935;42.660;23.342;2023-03-26T12:06:53;94227.63;;;17.05;34.82
8049;BME280;20935;42.660;23.342;2023-03-26T12:09:49;94213.81;;;17.12;34.38
8049;BME280;20935;42.660;23.342;2023-03-26T12:12:37;94222.06;;;16.99;34.96
8049;BME280;20935;42.660;23.342;2023-03-26T12:15:25;94219.81;;;17.07;33.90
8049;BME280;20935;42.660;23.342;2023-03-26T12:18:22;94214.28;;;17.28;34.27
8049;BME280;20935;42.660;23.342;2023-03-26T12:21:10;94209.44;;;17.05;32.58
8049;BME280;20935;42.660;23.342;2023-03-26T12:23:58;94200.69;;;17.01;33.45
8049;BME280;20935;42.660;23.342;2023-03-26T12:26:44;94187.84;;;17.42;33.64
8049;BME280;20935;42.660;23.342;2023-03-26T12:29:30;94207.84;;;17.44;33.38
8049;BME280;20935;42.660;23.342;2023-03-26T12:32:19;94183.75;;;17.28;33.34
8049;BME280;20935;42.660;23.342;2023-03-26T12:35:06;94176.66;;;17.12;33.48
8049;BME280;20935;42.660;23.342;2023-03-26T12:37:53;94177.00;;;17.32;32.70
8049;BME280;20935;42.660;23.342;2023-03-26T12:40:40;94175.34;;;17.44;32.34
8049;BME280;20935;42.660;23.342;2023-03-26T12:43:29;94164.97;;;17.33;31.24
8049;BME280;20935;42.660;23.342;2023-03-26T12:46:22;94160.59;;;17.36;30.28
8049;BME280;20935;42.660;23.342;2023-03-26T12:49:10;94157.59;;;17.25;30.32
8049;BME280;20935;42.660;23.342;2023-03-26T12:52:03;94155.34;;;17.42;30.23
8049;BME280;20935;42.660;23.342;2023-03-26T12:54:57;94160.19;;;17.65;29.60
8049;BME280;20935;42.660;23.342;2023-03-26T12:57:52;94150.25;;;17.62;29.55
8049;BME280;20935;42.660;23.342;2023-03-26T13:00:50;94153.88;;;17.59;28.64
8049;BME280;20935;42.660;23.342;2023-03-26T13:03:53;94150.22;;;17.53;28.41
8049;BME280;20935;42.660;23.342;2023-03-26T13:06:48;94142.84;;;17.53;30.10
8049;BME280;20935;42.660;23.342;2023-03-26T13:09:46;94138.34;;;17.23;30.35
8049;BME280;20935;42.660;23.342;2023-03-26T13:12:40;94140.75;;;17.39;30.05
8049;BME280;20935;42.660;23.342;2023-03-26T13:15:31;94137.00;;;17.36;28.77
8049;BME280;20935;42.660;23.342;2023-03-26T13:18:28;94119.25;;;17.26;28.97
8049;BME280;20935;42.660;23.342;2023-03-26T13:21:25;94129.00;;;17.24;29.11
8049;BME280;20935;42.660;23.342;2023-03-26T13:24:26;94126.63;;;17.35;28.61
8049;BME280;20935;42.660;23.342;2023-03-26T13:27:24;94133.06;;;17.28;28.49
8049;BME280;20935;42.660;23.342;2023-03-26T13:30:19;94127.38;;;17.26;27.79
8049;BME280;20935;42.660;23.342;2023-03-26T13:33:24;94139.09;;;17.60;27.84
8049;BME280;20935;42.660;23.342;2023-03-26T13:36:15;94152.19;;;17.43;27.40
8049;BME280;20935;42.660;23.342;2023-03-26T13:39:17;94135.03;;;17.37;28.66
8049;BME280;20935;42.660;23.342;2023-03-26T13:42:20;94131.88;;;17.29;28.63
8049;BME280;20935;42.660;23.342;2023-03-26T13:45:19;94125.28;;;17.30;28.76
8049;BME280;20935;42.660;23.342;2023-03-26T13:48:11;94132.31;;;17.28;27.17
8049;BME280;20935;42.660;23.342;2023-03-26T13:51:03;94131.72;;;17.33;26.88
8049;BME280;20935;42.660;23.342;2023-03-26T13:53:55;94119.22;;;17.08;26.58
8049;BME280;20935;42.660;23.342;2023-03-26T13:56:48;94117.00;;;17.34;26.82
8049;BME280;20935;42.660;23.342;2023-03-26T13:59:38;94118.19;;;17.24;27.46
8049;BME280;20935;42.660;23.342;2023-03-26T14:02:31;94125.56;;;17.51;27.82
8049;BME280;20935;42.660;23.342;2023-03-26T14:05:22;94121.34;;;17.68;27.45
8049;BME280;20935;42.660;23.342;2023-03-26T14:08:15;94122.22;;;17.56;27.14
8049;BME280;20935;42.660;23.342;2023-03-26T14:11:06;94123.16;;;17.53;26.74
8049;BME280;20935;42.660;23.342;2023-03-26T14:13:57;94106.63;;;17.42;26.97
8049;BME280;20935;42.660;23.342;2023-03-26T14:16:49;94096.09;;;17.16;27.85
8049;BME280;20935;42.660;23.342;2023-03-26T14:23:02;94104.66;;;17.24;28.40
8049;BME280;20935;42.660;23.342;2023-03-26T14:26:05;94101.34;;;17.38;28.85
8049;BME280;20935;42.660;23.342;2023-03-26T14:32:31;94087.22;;;17.61;28.70
8049;BME280;20935;42.660;23.342;2023-03-26T14:35:34;94100.06;;;18.03;28.86
8049;BME280;20935;42.660;23.342;2023-03-26T14:38:37;94093.56;;;18.00;28.78
8049;BME280;20935;42.660;23.342;2023-03-26T14:41:28;94089.22;;;18.03;28.96
8049;BME280;20935;42.660;23.342;2023-03-26T14:44:55;94078.22;;;18.06;28.83
8049;BME280;20935;42.660;23.342;2023-03-26T14:48:03;94083.81;;;17.94;29.55
8049;BME280;20935;42.660;23.342;2023-03-26T14:51:00;94076.69;;;17.63;30.38
8049;BME280;20935;42.660;23.342;2023-03-26T14:53:54;94090.44;;;17.93;30.44
8049;BME280;20935;42.660;23.342;2023-03-26T14:56:50;94075.63;;;17.70;30.50
8049;BME280;20935;42.660;23.342;2023-03-26T15:00:10;94080.91;;;17.37;30.99
8049;BME280;20935;42.660;23.342;2023-03-26T15:13:08;94098.03;;;17.70;28.58
8049;BME280;20935;42.660;23.342;2023-03-26T15:20:10;94085.25;;;17.71;28.76
8049;BME280;20935;42.660;23.342;2023-03-26T15:23:25;94091.28;;;17.66;29.15
8049;BME280;20935;42.660;23.342;2023-03-26T15:26:42;94085.41;;;17.58;28.64
8049;BME280;20935;42.660;23.342;2023-03-26T15:29:56;94105.09;;;17.77;28.72
8049;BME280;20935;42.660;23.342;2023-03-26T15:33:06;94086.44;;;17.70;28.86
8049;BME280;20935;42.660;23.342;2023-03-26T15:36:28;94085.84;;;17.75;28.67
8049;BME280;20935;42.660;23.342;2023-03-26T15:39:34;94100.25;;;18.32;28.28
8049;BME280;20935;42.660;23.342;2023-03-26T15:42:30;94098.69;;;18.07;28.71
8049;BME280;20935;42.660;23.342;2023-03-26T15:45:33;94098.78;;;18.22;29.13
8049;BME280;20935;42.660;23.342;2023-03-26T15:51:50;94101.84;;;18.81;29.74
8049;BME280;20935;42.660;23.342;2023-03-26T15:54:49;94092.91;;;18.56;30.11